CYPR

Prince Rupert Airport

Prince Rupert, , Canada
METAR CYPR 152200Z AUTO 27006KT 240V300 9SM CLR 16/12 A3006 RMK SLP182
Observed Flight Rules
Aug-15 @ 22:00 UTC (26 minutes ago) Visual Flight Rules
Wind Visibility Clouds
270° at 6 knots 9 miles
  • Clear skies
Temperatures Readings
Current 16°C / 61°F
Dewpoint 12°C / 54°F
Humidity 77%
Altimeter 30.06" Hg
Pressure 1018.2 hPa
Elevation 34
METAR CYPR 152200Z AUTO 27006KT 240V300 9SM CLR 16/12 A3006 RMK SLP182
Observed Flight Rules
Aug-15 @ 22:00 UTC
(26 minutes ago)
VFR
Wind Visibility
270° at 6 knots 9 miles
Clouds
  • Clear skies
Temperature Dewpoint
16°C / 61°F 12°C / 54°F
Humidity Altimeter Pressure
77% 30.06" Hg 1018.2 hPa